SWR4WG LSZH-LYBE
Flight info
| Callsign | SWR4WG |
|---|---|
| Flight time | N/A |
| Altitude | 35000 |
| Route | DEGES3E/10 DEGES Z2 TUNUM Z204 GEDSO DCT VALLU DCT RIGMU |
| Aircraft | A320/M-SDE3FGHIRWY/LB1 |
Departure
| Time | N/A |
|---|---|
| Airport | Zürich Airport (LSZH) |
Arrival
| Time | 2026-04-29 16:35 |
|---|---|
| Airport | Belgrade Nikola Tesla Airport (LYBE) |
| Time | Latitude | Longitude | Altitude | Speed | Heading |
|---|---|---|---|---|---|
| 2026-04-29 16:08 | 45.75116 | 17.91988 | 35195 ft | 490 kts | 107° |
| 2026-04-29 16:08 | 45.74080 | 17.96641 | 35213 ft | 490 kts | 107° |
| 2026-04-29 16:09 | 45.72007 | 18.05922 | 35208 ft | 490 kts | 107° |
| 2026-04-29 16:09 | 45.69925 | 18.15202 | 35210 ft | 490 kts | 108° |
| 2026-04-29 16:10 | 45.67830 | 18.24463 | 35208 ft | 490 kts | 108° |
| 2026-04-29 16:10 | 45.65726 | 18.33730 | 35205 ft | 490 kts | 108° |
| 2026-04-29 16:11 | 45.63618 | 18.42991 | 35205 ft | 490 kts | 108° |
| 2026-04-29 16:11 | 45.61509 | 18.52243 | 35208 ft | 490 kts | 108° |
| 2026-04-29 16:12 | 45.59401 | 18.61450 | 35205 ft | 490 kts | 108° |
| 2026-04-29 16:12 | 45.57264 | 18.70713 | 34916 ft | 491 kts | 108° |
| 2026-04-29 16:12 | 45.56196 | 18.75329 | 34351 ft | 490 kts | 108° |
| 2026-04-29 16:13 | 45.55124 | 18.79953 | 33691 ft | 490 kts | 108° |
| 2026-04-29 16:13 | 45.54055 | 18.84554 | 33109 ft | 487 kts | 108° |
| 2026-04-29 16:13 | 45.52991 | 18.89132 | 32523 ft | 486 kts | 108° |
| 2026-04-29 16:13 | 45.51931 | 18.93691 | 31933 ft | 484 kts | 108° |
| 2026-04-29 16:14 | 45.50872 | 18.98237 | 31357 ft | 482 kts | 108° |
| 2026-04-29 16:14 | 45.49815 | 19.02757 | 30794 ft | 480 kts | 109° |
| 2026-04-29 16:14 | 45.48754 | 19.07272 | 30223 ft | 478 kts | 109° |
| 2026-04-29 16:14 | 45.47698 | 19.11750 | 29637 ft | 473 kts | 109° |
| 2026-04-29 16:15 | 45.46661 | 19.16139 | 29120 ft | 463 kts | 109° |
| 2026-04-29 16:15 | 45.45643 | 19.20458 | 28615 ft | 455 kts | 109° |
| 2026-04-29 16:15 | 45.44644 | 19.24692 | 28117 ft | 447 kts | 109° |
| 2026-04-29 16:15 | 45.43658 | 19.28861 | 27610 ft | 441 kts | 109° |
| 2026-04-29 16:16 | 45.42680 | 19.32969 | 27102 ft | 435 kts | 109° |
| 2026-04-29 16:16 | 45.41727 | 19.36961 | 26596 ft | 429 kts | 109° |
| 2026-04-29 16:16 | 45.40620 | 19.40877 | 26088 ft | 422 kts | 119° |
| 2026-04-29 16:16 | 45.39194 | 19.44475 | 25634 ft | 414 kts | 123° |
| 2026-04-29 16:17 | 45.37754 | 19.47990 | 25181 ft | 408 kts | 123° |
| 2026-04-29 16:17 | 45.36334 | 19.51457 | 24718 ft | 403 kts | 123° |
| 2026-04-29 16:17 | 45.34929 | 19.54885 | 24252 ft | 398 kts | 123° |
| 2026-04-29 16:17 | 45.33538 | 19.58267 | 23781 ft | 394 kts | 123° |
| 2026-04-29 16:18 | 45.32163 | 19.61610 | 23281 ft | 389 kts | 123° |
| 2026-04-29 16:18 | 45.30807 | 19.64904 | 22840 ft | 383 kts | 123° |
| 2026-04-29 16:18 | 45.29470 | 19.68147 | 22411 ft | 377 kts | 123° |
| 2026-04-29 16:18 | 45.28153 | 19.71341 | 21980 ft | 372 kts | 124° |
| 2026-04-29 16:19 | 45.26850 | 19.74497 | 21567 ft | 369 kts | 124° |
| 2026-04-29 16:19 | 45.25553 | 19.77632 | 21149 ft | 368 kts | 124° |
| 2026-04-29 16:19 | 45.24258 | 19.80752 | 20732 ft | 367 kts | 124° |
| 2026-04-29 16:19 | 45.22965 | 19.83864 | 20323 ft | 366 kts | 124° |
| 2026-04-29 16:20 | 45.21673 | 19.86975 | 19913 ft | 366 kts | 124° |
| 2026-04-29 16:20 | 45.20384 | 19.90078 | 19494 ft | 365 kts | 124° |
| 2026-04-29 16:20 | 45.19098 | 19.93174 | 19091 ft | 364 kts | 124° |
| 2026-04-29 16:20 | 45.17809 | 19.96264 | 18679 ft | 364 kts | 124° |
| 2026-04-29 16:21 | 45.16517 | 19.99351 | 18244 ft | 364 kts | 124° |
| 2026-04-29 16:21 | 45.15246 | 20.02384 | 17834 ft | 362 kts | 124° |
| 2026-04-29 16:21 | 45.13966 | 20.05437 | 17438 ft | 359 kts | 124° |
| 2026-04-29 16:21 | 45.12695 | 20.08471 | 17042 ft | 357 kts | 124° |
| 2026-04-29 16:22 | 45.11431 | 20.11490 | 16650 ft | 356 kts | 124° |
| 2026-04-29 16:22 | 45.10173 | 20.14495 | 16263 ft | 354 kts | 124° |
| 2026-04-29 16:22 | 45.08916 | 20.17488 | 15878 ft | 353 kts | 124° |
| 2026-04-29 16:22 | 45.07662 | 20.20467 | 15493 ft | 352 kts | 124° |
| 2026-04-29 16:23 | 45.06426 | 20.23405 | 15111 ft | 342 kts | 124° |
| 2026-04-29 16:23 | 45.05226 | 20.26258 | 14752 ft | 336 kts | 124° |
| 2026-04-29 16:23 | 45.04029 | 20.29100 | 14384 ft | 336 kts | 124° |
| 2026-04-29 16:23 | 45.02834 | 20.31930 | 14013 ft | 335 kts | 124° |
| 2026-04-29 16:24 | 45.01639 | 20.34755 | 13604 ft | 334 kts | 123° |
| 2026-04-29 16:24 | 45.00446 | 20.37574 | 13239 ft | 332 kts | 123° |
| 2026-04-29 16:24 | 44.99264 | 20.40364 | 12875 ft | 330 kts | 123° |
| 2026-04-29 16:24 | 44.98104 | 20.43101 | 12500 ft | 328 kts | 122° |
| 2026-04-29 16:25 | 44.96940 | 20.45850 | 12125 ft | 325 kts | 122° |
| 2026-04-29 16:25 | 44.95790 | 20.48568 | 11742 ft | 318 kts | 122° |
| 2026-04-29 16:25 | 44.94671 | 20.51206 | 11373 ft | 309 kts | 121° |
| 2026-04-29 16:25 | 44.93568 | 20.53800 | 11008 ft | 307 kts | 121° |
| 2026-04-29 16:26 | 44.92468 | 20.56384 | 10633 ft | 307 kts | 121° |
| 2026-04-29 16:26 | 44.91366 | 20.58965 | 10155 ft | 309 kts | 120° |
| 2026-04-29 16:26 | 44.90143 | 20.61402 | 9623 ft | 300 kts | 133° |
| 2026-04-29 16:26 | 44.88575 | 20.63287 | 8993 ft | 294 kts | 148° |
| 2026-04-29 16:27 | 44.86755 | 20.64526 | 8340 ft | 289 kts | 162° |
| 2026-04-29 16:27 | 44.84810 | 20.65121 | 7671 ft | 284 kts | 172° |
| 2026-04-29 16:27 | 44.82886 | 20.65552 | 7002 ft | 282 kts | 171° |
| 2026-04-29 16:27 | 44.80967 | 20.65988 | 6425 ft | 275 kts | 171° |
| 2026-04-29 16:28 | 44.79056 | 20.66271 | 5647 ft | 276 kts | 181° |
| 2026-04-29 16:28 | 44.77167 | 20.65880 | 4953 ft | 274 kts | 197° |
| 2026-04-29 16:28 | 44.75443 | 20.64815 | 4271 ft | 269 kts | 213° |
| 2026-04-29 16:28 | 44.73913 | 20.63459 | 4048 ft | 249 kts | 213° |
| 2026-04-29 16:29 | 44.72479 | 20.62208 | 4000 ft | 235 kts | 213° |
| 2026-04-29 16:29 | 44.71144 | 20.60946 | 4003 ft | 229 kts | 226° |
| 2026-04-29 16:29 | 44.70337 | 20.59082 | 4008 ft | 223 kts | 259° |
| 2026-04-29 16:29 | 44.70350 | 20.56957 | 4009 ft | 218 kts | 290° |
| 2026-04-29 16:30 | 44.71031 | 20.55131 | 4008 ft | 204 kts | 305° |
| 2026-04-29 16:30 | 44.71774 | 20.53495 | 3881 ft | 194 kts | 305° |
| 2026-04-29 16:30 | 44.72490 | 20.51909 | 3621 ft | 190 kts | 305° |
| 2026-04-29 16:30 | 44.73189 | 20.50350 | 3375 ft | 186 kts | 305° |
| 2026-04-29 16:31 | 44.73872 | 20.48821 | 3128 ft | 183 kts | 305° |
| 2026-04-29 16:31 | 44.74547 | 20.47312 | 2874 ft | 182 kts | 305° |
| 2026-04-29 16:31 | 44.75219 | 20.45808 | 2660 ft | 179 kts | 305° |
| 2026-04-29 16:31 | 44.75846 | 20.44399 | 2435 ft | 162 kts | 305° |
| 2026-04-29 16:32 | 44.76423 | 20.43097 | 2178 ft | 151 kts | 305° |
| 2026-04-29 16:32 | 44.76945 | 20.41927 | 2023 ft | 134 kts | 305° |
| 2026-04-29 16:32 | 44.77435 | 20.40833 | 1804 ft | 130 kts | 305° |
| 2026-04-29 16:32 | 44.77911 | 20.39763 | 1629 ft | 130 kts | 304° |
| 2026-04-29 16:33 | 44.78842 | 20.37663 | 1296 ft | 124 kts | 304° |
| 2026-04-29 16:33 | 44.79305 | 20.36636 | 1123 ft | 125 kts | 304° |
| 2026-04-29 16:33 | 44.79776 | 20.35581 | 933 ft | 130 kts | 302° |
| 2026-04-29 16:34 | 44.80249 | 20.34518 | 746 ft | 130 kts | 302° |
| 2026-04-29 16:34 | 44.80729 | 20.33445 | 565 ft | 130 kts | 300° |
| 2026-04-29 16:34 | 44.81192 | 20.32389 | 383 ft | 126 kts | 299° |
| 2026-04-29 16:34 | 44.81624 | 20.31414 | 320 ft | 101 kts | 302° |
| 2026-04-29 16:35 | 44.81893 | 20.30811 | 321 ft | 52 kts | 302° |
| 2026-04-29 16:35 | 44.82066 | 20.30414 | 319 ft | 43 kts | 302° |
| 2026-04-29 16:35 | 44.82213 | 20.30083 | 320 ft | 36 kts | 302° |
| 2026-04-29 16:35 | 44.82321 | 20.29842 | 321 ft | 15 kts | 301° |
| 2026-04-29 16:36 | 44.82328 | 20.29725 | 322 ft | 12 kts | 232° |
| 2026-04-29 16:36 | 44.82243 | 20.29653 | 322 ft | 14 kts | 212° |
| 2026-04-29 16:36 | 44.82174 | 20.29593 | 322 ft | 7 kts | 212° |
| 2026-04-29 16:36 | 44.82169 | 20.29588 | 322 ft | 0 kts | 211° |
| 2026-04-29 16:37 | 44.82143 | 20.29569 | 322 ft | 9 kts | 196° |
| 2026-04-29 16:37 | 44.82095 | 20.29624 | 322 ft | 9 kts | 144° |
| 2026-04-29 16:37 | 44.82060 | 20.29615 | 322 ft | 8 kts | 214° |
| 2026-04-29 16:38 | 44.81977 | 20.29538 | 320 ft | 13 kts | 212° |
| 2026-04-29 16:38 | 44.81891 | 20.29461 | 321 ft | 16 kts | 212° |
| 2026-04-29 16:38 | 44.81811 | 20.29392 | 321 ft | 10 kts | 212° |
| 2026-04-29 16:38 | 44.81804 | 20.29323 | 321 ft | 9 kts | 302° |
| 2026-04-29 16:39 | 44.81794 | 20.29258 | 321 ft | 7 kts | 217° |
| 2026-04-29 16:39 | 44.81796 | 20.29206 | 321 ft | 7 kts | 304° |
| 2026-04-29 16:39 | 44.81812 | 20.29171 | 321 ft | 3 kts | 302° |
| 2026-04-29 16:39 | 44.81815 | 20.29165 | 321 ft | 0 kts | 302° |